Mahomet, Texas
Current Conditions -  °F | °C
As of 9:53 PM on Wednesday 26 Nov 2014 (Local Time) from KBMQ Reporting Station
Clear Clear  
Wind Chill: 52°   Ceiling: Unl
Heat Index: 52°   Visibility: 10mi
Dew Point: 33°   Wind: 9mph
Humidity: 49%   Direction: 20°NNE
Pressure: 30.35"   Gusts: NA
Location:  30.7452°N, 98.043°W
Report Text: KBMQ 270353Z AUTO 02008KT 10SM CLR 11/01 A3035 RMK AO2 SLP273 T01110006
Loading
Personal Weather Stations






























Interactive Weather Map New forecast layout! Learn more

10-Day Weather Forecast

Advertisements
Track Severe Weather on mobile